Dobrodošli na spletni strani vremenske postaje Senovo. Vse informacije so informativnega značaja, saj vremenska postaja ni del državne mreže meteoroloških postaj. AKTUALNIH OBVESTIL NI.


Sneg/Led Od: 22-02-2018 00:00 Do: 23-02-2018 23:59 Opozorilo za: Sneg/Led Stopnja: Rumena info button
Veter Od: 22-02-2018 00:00 Do: 23:59 Opozorilo za: Veter Stopnja: Rumena info button

Pogled proti Armezu več informacij Pogled proti Armezu


Lisca več informacij Lisca


Radar strel več informacij blitzortung!


opozorilo za sneg/led več informacij rain snow radar


Obiščite še:

Template documentation
and downloads

And another site



Weather Underground, zgodovina - Tekstovno

Dnevni povzetek za Januar 14, 2018 Enote:  Metrično    Angleško   Obe
« Predhodni Dan
Naslednji Dan »
Dnevni Tedenski Mesečni Letni Po meri
  Višja: Nižja: Povprečje:
Temperatura: -17.8 °C -18.1 °C -17.1 °C
Točka rosišča: -17.8 °C -19.6 °C -18.3 °C
Vlažnost: Humidity % 80 % 85 %
Hitrost vetra: 0 km/h 0.3 km/h 8.5 km/h
Sunki vetra: 0 km/h - -
Veter:- - East
Zračni tlak: 0 hPa 34567.7 hPa -
Padavine: 7.62 mm    
Historical Graphs
 
 
Tabelarni podarki za Januar 14, 2018
Čas Temperatura Točka rosišča Zračni tlak Veter Hitrost vetra Sunki vetra Vlažnost Intenziteta padavin (urna)
-17.8 °C -17.8 °C 0 hPa Calm     Humidity % 0 mm
00:01 -16.3 °C -17.3 °C 34635.4 hPa East 4.3 km/h 12.2 km/h 88 % 0 mm
00:09 -16.3 °C -17.3 °C 34635.4 hPa ENE 6 km/h 12.7 km/h 88 % 0 mm
00:14 -16.3 °C -17.3 °C 34635.4 hPa NE 5.5 km/h 12.7 km/h 88 % 0 mm
00:24 -16.4 °C -17.4 °C 34635.4 hPa ENE 8.9 km/h 16.3 km/h 88 % 0 mm
00:29 -16.4 °C -17.4 °C 34635.4 hPa ENE 8.2 km/h 16.3 km/h 88 % 0 mm
00:38 -16.4 °C -17.4 °C 34635.4 hPa East 8.9 km/h 19.2 km/h 88 % 0 mm
00:47 -16.4 °C -17.4 °C 34635.4 hPa East 10.6 km/h 17.4 km/h 88 % 0 mm
00:52 -16.4 °C -17.4 °C 34635.4 hPa ENE 8.9 km/h 17.4 km/h 88 % 0 mm
01:00 -16.4 °C -17.4 °C 34635.4 hPa ENE 9.7 km/h 16.3 km/h 88 % 0 mm
01:06 -16.4 °C -17.4 °C 34635.4 hPa ENE 8.9 km/h 16.3 km/h 88 % 0 mm
01:13 -16.4 °C -17.4 °C 34601.5 hPa East 8 km/h 16.3 km/h 88 % 0 mm
01:18 -16.4 °C -17.4 °C 34601.5 hPa East 9.3 km/h 16.3 km/h 88 % 0 mm
01:30 -16.4 °C -17.4 °C 34601.5 hPa ENE 6 km/h 12.7 km/h 88 % 0 mm
01:31 -16.4 °C -17.4 °C 34601.5 hPa ENE 5.5 km/h 12.7 km/h 88 % 0 mm
01:37 -16.4 °C -17.4 °C 34601.5 hPa East 5.5 km/h 9.3 km/h 88 % 0 mm
01:58 -16.4 °C -17.4 °C 34601.5 hPa ENE 8.5 km/h 17.4 km/h 88 % 0 mm
02:03 -16.4 °C -17.4 °C 34601.5 hPa ENE 10.3 km/h 17.4 km/h 88 % 0 mm
02:09 -16.4 °C -17.4 °C 34601.5 hPa ENE 10.1 km/h 16.9 km/h 88 % 0 mm
02:16 -16.5 °C -17.5 °C 34601.5 hPa East 6.9 km/h 12.2 km/h 88 % 0 mm
02:23 -16.5 °C -17.5 °C 34601.5 hPa SE 5.5 km/h 9.8 km/h 88 % 0 mm
02:28 -16.5 °C -17.5 °C 34601.5 hPa ESE 2.9 km/h 9.3 km/h 88 % 0 mm
02:34 -16.5 °C -17.5 °C 34601.5 hPa SE 2.6 km/h 9.3 km/h 88 % 0 mm
02:44 -16.5 °C -17.5 °C 34601.5 hPa SE 6.3 km/h 10.3 km/h 88 % 0 mm
02:49 -16.5 °C -17.5 °C 34601.5 hPa SE 5.5 km/h 9.8 km/h 88 % 0 mm
02:56 -16.5 °C -17.5 °C 34601.5 hPa SE 6.4 km/h 11.1 km/h 88 % 0 mm
03:01 -16.6 °C -17.6 °C 34601.5 hPa SE 7.2 km/h 11.1 km/h 88 % 0 mm
03:13 -16.6 °C -17.6 °C 34601.5 hPa SE 8.2 km/h 15 km/h 88 % 0 mm
03:25 -16.6 °C -17.6 °C 34601.5 hPa SE 8 km/h 14.5 km/h 88 % 0 mm
03:33 -16.6 °C -17.6 °C 34601.5 hPa ESE 6.4 km/h 16.9 km/h 88 % 0 mm
03:40 -16.6 °C -17.6 °C 34601.5 hPa ESE 8 km/h 16.9 km/h 88 % 0 mm
03:49 -16.6 °C -17.6 °C 34567.7 hPa SE 8.9 km/h 15.6 km/h 88 % 0 mm
04:00 -16.6 °C -17.6 °C 34567.7 hPa SE 11.1 km/h 16.9 km/h 88 % 0 mm
04:05 -16.6 °C -17.6 °C 34567.7 hPa SE 10.6 km/h 15.6 km/h 88 % 0 mm
04:18 -16.6 °C -17.6 °C 34567.7 hPa ESE 9.8 km/h 16.3 km/h 88 % 0 mm
04:34 -16.6 °C -17.6 °C 34567.7 hPa SE 6.8 km/h 15.6 km/h 88 % 0 mm
04:42 -16.6 °C -17.6 °C 34567.7 hPa ESE 9.7 km/h 16.3 km/h 88 % 0 mm
04:49 -16.6 °C -17.6 °C 34567.7 hPa ESE 8 km/h 12.7 km/h 88 % 0 mm
04:55 -16.6 °C -17.6 °C 34567.7 hPa East 7.2 km/h 12.7 km/h 88 % 0 mm
05:11 -16.6 °C -17.6 °C 34601.5 hPa ESE 6.9 km/h 14 km/h 88 % 0 mm
05:23 -16.6 °C -17.6 °C 34567.7 hPa ESE 9.7 km/h 16.9 km/h 88 % 0 mm
05:29 -16.6 °C -17.6 °C 34567.7 hPa East 10.3 km/h 16.9 km/h 88 % 0 mm
05:33 -16.6 °C -17.6 °C 34567.7 hPa East 10.6 km/h 16.3 km/h 88 % 0 mm
05:39 -16.6 °C -17.6 °C 34567.7 hPa East 11.1 km/h 15.6 km/h 88 % 0 mm
05:44 -16.6 °C -17.6 °C 34567.7 hPa East 11.4 km/h 16.9 km/h 88 % 0 mm
06:13 -16.7 °C -17.7 °C 34601.5 hPa ENE 10.3 km/h 20.9 km/h 88 % 0 mm
06:18 -16.7 °C -17.7 °C 34601.5 hPa ENE 10.6 km/h 20.9 km/h 88 % 0 mm
06:26 -16.7 °C -17.7 °C 34601.5 hPa ENE 9.7 km/h 20.3 km/h 87 % 0 mm
06:32 -16.7 °C -17.7 °C 34601.5 hPa ENE 12.2 km/h 20.3 km/h 88 % 0 mm
06:38 -16.7 °C -17.7 °C 34601.5 hPa ENE 12.7 km/h 25.4 km/h 88 % 0 mm
06:44 -16.7 °C -17.7 °C 34601.5 hPa ENE 10.9 km/h 16.9 km/h 88 % 0 mm
07:02 -16.8 °C -17.8 °C 34601.5 hPa East 8.9 km/h 15 km/h 88 % 0 mm
07:11 -16.8 °C -17.8 °C 34601.5 hPa East 9 km/h 15.6 km/h 88 % 0 mm
07:17 -16.8 °C -17.8 °C 34601.5 hPa East 11.1 km/h 27.2 km/h 88 % 0 mm
07:22 -16.8 °C -17.8 °C 34601.5 hPa East 12.4 km/h 27.2 km/h 88 % 0 mm
07:31 -16.8 °C -17.8 °C 34601.5 hPa East 12.9 km/h 19.6 km/h 88 % 0 mm
07:48 -16.9 °C -17.9 °C 34601.5 hPa ENE 15 km/h 31.9 km/h 88 % 0 mm
07:57 -16.9 °C -17.9 °C 34635.4 hPa ENE 15.8 km/h 33.6 km/h 88 % 0 mm
08:06 -16.9 °C -17.9 °C 34635.4 hPa ENE 12.7 km/h 18.7 km/h 88 % 0 mm
08:11 -16.9 °C -17.9 °C 34635.4 hPa ENE 11.1 km/h 16.9 km/h 88 % 0 mm
08:24 -16.9 °C -17.8 °C 34601.5 hPa ESE 12.4 km/h 32.3 km/h 89 % 0 mm
08:32 -17 °C -17.9 °C 34635.4 hPa ESE 12.9 km/h 22.5 km/h 89 % 0 mm
08:44 -17 °C -17.9 °C 34669.3 hPa ESE 10.6 km/h 19.2 km/h 89 % 0 mm
08:52 -17.1 °C -17.9 °C 34669.3 hPa ESE 9.7 km/h 19.2 km/h 89 % 0 mm
08:58 -17.1 °C -17.9 °C 34635.4 hPa ESE 12.7 km/h 26.7 km/h 89 % 0 mm
09:04 -17.1 °C -18 °C 34635.4 hPa ESE 13.5 km/h 22.5 km/h 89 % 0 mm
09:25 -17.2 °C -18.1 °C 34635.4 hPa ESE 10.1 km/h 20.9 km/h 89 % 0 mm
09:30 -17.2 °C -18.1 °C 34601.5 hPa ESE 8.5 km/h 16.9 km/h 89 % 0 mm
09:37 -17.2 °C -18.1 °C 34601.5 hPa ESE 8.9 km/h 18.7 km/h 89 % 0 mm
10:21 -17.3 °C -18.1 °C 34635.4 hPa East 10.9 km/h 19.2 km/h 90 % 7.62 mm
10:34 -17.2 °C -18.1 °C 34669.3 hPa East 11.4 km/h 22 km/h 89 % 7.62 mm
10:43 -17.2 °C -18.1 °C 34669.3 hPa East 14.2 km/h 28.5 km/h 89 % 7.62 mm
10:50 -17.2 °C -18.1 °C 34669.3 hPa ENE 10.6 km/h 20.3 km/h 89 % 7.62 mm
11:07 -17.2 °C -18.1 °C 34669.3 hPa ENE 12.9 km/h 18.7 km/h 89 % 0 mm
11:17 -17.1 °C -18 °C 34669.3 hPa ENE 10.6 km/h 20.3 km/h 89 % 0 mm
11:40 -17.1 °C -17.9 °C 34669.3 hPa East 10.9 km/h 18.7 km/h 89 % 0 mm
12:07 -17.1 °C -18.1 °C 34635.4 hPa ENE 11.4 km/h 19.2 km/h 88 % 0 mm
12:14 -17.2 °C -18.2 °C 34635.4 hPa ENE 11.1 km/h 17.9 km/h 88 % 0 mm
12:19 -17.2 °C -18.2 °C 34635.4 hPa ENE 11.9 km/h 19.6 km/h 88 % 0 mm
12:26 -17.2 °C -18.2 °C 34635.4 hPa ENE 10.3 km/h 16.9 km/h 88 % 0 mm
12:41 -17.1 °C -18.2 °C 34635.4 hPa ENE 11.4 km/h 19.6 km/h 87 % 0 mm
12:46 -17.1 °C -18.2 °C 34635.4 hPa ENE 11.4 km/h 19.6 km/h 87 % 0 mm
12:54 -17.1 °C -18.2 °C 34635.4 hPa ENE 9.7 km/h 19.2 km/h 87 % 0 mm
13:06 -17.2 °C -18.2 °C 34601.5 hPa ENE 13.2 km/h 22.5 km/h 87 % 0 mm
13:14 -17.2 °C -18.2 °C 34635.4 hPa ENE 11.6 km/h 20.3 km/h 87 % 0 mm
13:22 -17.2 °C -18.2 °C 34635.4 hPa East 11.6 km/h 20.3 km/h 87 % 0 mm
13:34 -17.1 °C -18.3 °C 34635.4 hPa ENE 11.4 km/h 19.6 km/h 86 % 0 mm
13:54 -17.1 °C -18.3 °C 34635.4 hPa ENE 13.2 km/h 20.9 km/h 86 % 0 mm
13:59 -17.2 °C -18.4 °C 34635.4 hPa ENE 11.1 km/h 20.9 km/h 85 % 0 mm
14:07 -17.2 °C -18.4 °C 34635.4 hPa NE 11.1 km/h 23.8 km/h 85 % 0 mm
14:12 -17.2 °C -18.4 °C 34635.4 hPa ENE 11.9 km/h 22.5 km/h 85 % 0 mm
14:26 -17.2 °C -18.4 °C 34635.4 hPa ENE 13.2 km/h 27.2 km/h 85 % 0 mm
14:32 -17.3 °C -18.5 °C 34601.5 hPa ENE 10.9 km/h 27.2 km/h 85 % 0 mm
14:39 -17.3 °C -18.5 °C 34601.5 hPa ENE 11.4 km/h 20.9 km/h 85 % 0 mm
14:44 -17.3 °C -18.5 °C 34635.4 hPa ENE 11.4 km/h 20.9 km/h 85 % 0 mm
14:52 -17.3 °C -18.6 °C 34635.4 hPa ENE 11.6 km/h 19.6 km/h 85 % 0 mm
14:57 -17.3 °C -18.6 °C 34635.4 hPa ENE 11.1 km/h 19.6 km/h 85 % 0 mm
15:06 -17.3 °C -18.6 °C 34635.4 hPa ENE 10.3 km/h 17.4 km/h 85 % 0 mm
15:14 -17.3 °C -18.6 °C 34635.4 hPa ENE 12.4 km/h 19.2 km/h 85 % 0 mm
15:19 -17.3 °C -18.7 °C 34635.4 hPa ENE 10.9 km/h 18.7 km/h 84 % 0 mm
15:26 -17.3 °C -18.7 °C 34635.4 hPa ENE 9 km/h 15.6 km/h 84 % 0 mm
15:35 -17.3 °C -18.7 °C 34635.4 hPa ENE 10.6 km/h 20.9 km/h 84 % 0 mm
15:46 -17.3 °C -18.7 °C 34635.4 hPa ENE 12.2 km/h 22 km/h 84 % 0 mm
15:58 -17.4 °C -18.7 °C 34635.4 hPa ENE 11.1 km/h 19.6 km/h 84 % 0 mm
16:09 -17.4 °C -18.7 °C 34635.4 hPa NE 13.5 km/h 27.7 km/h 84 % 0 mm
16:20 -17.4 °C -18.8 °C 34635.4 hPa NE 11.9 km/h 19.6 km/h 83 % 0 mm
16:30 -17.4 °C -18.8 °C 34669.3 hPa ENE 10.9 km/h 19.6 km/h 83 % 0 mm
16:36 -17.4 °C -18.8 °C 34669.3 hPa ENE 11.9 km/h 20.3 km/h 83 % 0 mm
16:41 -17.4 °C -18.8 °C 34669.3 hPa ENE 11.9 km/h 22 km/h 83 % 0 mm
16:47 -17.4 °C -18.8 °C 34669.3 hPa ENE 12.4 km/h 22 km/h 83 % 0 mm
17:05 -17.4 °C -18.9 °C 34669.3 hPa ENE 8.5 km/h 16.9 km/h 82 % 0 mm
17:22 -17.4 °C -18.9 °C 34669.3 hPa ENE 9 km/h 15.6 km/h 82 % 0 mm
17:32 -17.4 °C -18.9 °C 34669.3 hPa East 8.9 km/h 14 km/h 82 % 0 mm
18:01 -17.5 °C -19.1 °C 34669.3 hPa East 8.2 km/h 15.6 km/h 81 % 0 mm
18:06 -17.5 °C -19.1 °C 34669.3 hPa East 7.7 km/h 15.6 km/h 81 % 0 mm
18:23 -17.6 °C -19.2 °C 34703.1 hPa East 5.5 km/h 9.8 km/h 81 % 0 mm
18:29 -17.6 °C -19.2 °C 34703.1 hPa East 5.5 km/h 9.8 km/h 81 % 0 mm
18:41 -17.6 °C -19.3 °C 34703.1 hPa East 8 km/h 15 km/h 80 % 0 mm
18:47 -17.6 °C -19.3 °C 34703.1 hPa East 7.2 km/h 12.2 km/h 80 % 0 mm
18:55 -17.6 °C -19.3 °C 34703.1 hPa East 6.3 km/h 8.9 km/h 80 % 0 mm
19:21 -17.7 °C -19.3 °C 34703.1 hPa ESE 6.4 km/h 11.1 km/h 80 % 0 mm
19:27 -17.7 °C -19.3 °C 34703.1 hPa ESE 5.6 km/h 9.8 km/h 80 % 0 mm
19:32 -17.7 °C -19.3 °C 34703.1 hPa ESE 5.1 km/h 9.3 km/h 80 % 0 mm
19:52 -17.7 °C -19.4 °C 34703.1 hPa East 6.8 km/h 15 km/h 80 % 0 mm
19:58 -17.7 °C -19.4 °C 34703.1 hPa East 6.3 km/h 16.9 km/h 80 % 0 mm
20:09 -17.8 °C -19.5 °C 34703.1 hPa ESE 7.2 km/h 11.1 km/h 80 % 0 mm
20:14 -17.8 °C -19.5 °C 34669.3 hPa ESE 6.8 km/h 11.1 km/h 80 % 0 mm
20:18 -17.8 °C -19.5 °C 34669.3 hPa ESE 7.2 km/h 11.1 km/h 80 % 0 mm
20:35 -17.9 °C -19.5 °C 34703.1 hPa ESE 2.3 km/h 7.6 km/h 81 % 7.62 mm
20:43 -17.9 °C -19.6 °C 34669.3 hPa ESE 4.2 km/h 8 km/h 81 % 7.62 mm
20:48 -17.9 °C -19.6 °C 34669.3 hPa ESE 3.7 km/h 6.9 km/h 81 % 7.62 mm
21:01 -18 °C -19.6 °C 34669.3 hPa SE 1.3 km/h 6.9 km/h 81 % 7.62 mm
21:10 -18.1 °C -19.6 °C 34669.3 hPa ENE 0.5 km/h 5.6 km/h 81 % 7.62 mm
21:19 -18.1 °C -19.6 °C 34703.1 hPa East 1.3 km/h 5.6 km/h 81 % 7.62 mm
21:27 -18.1 °C -19.6 °C 34669.3 hPa East 1.6 km/h 6.9 km/h 82 % 0 mm
21:38 -18.1 °C -19.6 °C 34669.3 hPa ESE 1.8 km/h 8.9 km/h 82 % 0 mm
21:48 -18.1 °C -19.6 °C 34669.3 hPa ESE 0.5 km/h 5.1 km/h 82 % 0 mm
21:54 -18.1 °C -19.6 °C 34669.3 hPa ESE 0.3 km/h 2.9 km/h 82 % 0 mm
22:00 -18.1 °C -19.6 °C 34669.3 hPa SE 1.6 km/h 8 km/h 82 % 0 mm
22:06 -18.1 °C -19.5 °C 34669.3 hPa SE 3.7 km/h 8 km/h 83 % 0 mm
22:18 -18.1 °C -19.5 °C 34703.1 hPa SE 2.6 km/h 8 km/h 83 % 0 mm
22:25 -18.1 °C -19.5 °C 34703.1 hPa SE 3.4 km/h 6.9 km/h 83 % 0 mm
22:34 -18.1 °C -19.5 °C 34669.3 hPa ESE 5 km/h 9.3 km/h 83 % 0 mm
22:43 -18.1 °C -19.4 °C 34703.1 hPa ESE 3.9 km/h 7.6 km/h 84 % 0 mm
22:55 -18.1 °C -19.4 °C 34703.1 hPa East 1.6 km/h 6.9 km/h 84 % 0 mm
23:12 -18.1 °C -19.4 °C 34703.1 hPa East 3.4 km/h 8.9 km/h 84 % 0 mm
23:19 -18.1 °C -19.4 °C 34703.1 hPa East 4.2 km/h 7.6 km/h 84 % 0 mm
23:24 -18.1 °C -19.4 °C 34703.1 hPa East 4.2 km/h 6.9 km/h 84 % 0 mm
23:36 -18.1 °C -19.4 °C 34703.1 hPa ESE 2.9 km/h 6.9 km/h 84 % 0 mm
23:54 -18.1 °C -19.3 °C 34703.1 hPa ESE 5 km/h 9.3 km/h 85 % 0 mm
Vremenska postaja Senovo
Podatki zbrani iz Weather Underground - 2.25 mb

Script developed by  Jim McMurry - jmcmurry@mwt.net Adapted for the template by  Wim van der Kuil - Leuven-Template.eu

Vremenski podatki so objavljeni na:

European Weather Network

WeatherCloud

Weather Underground

AWEKAS

HAMweather, WeatherForYou, PWS Weather

MapView

Geostik

Slovenia weather network

Oprema, ki se uporablja:

Vremenski program
Cumulus

Vremenski server
Asus

Cumulus

Asus